Time;durP1;ratioP1;P1;durP2;ratioP2;P2;SDS_P1;SDS_P2;PMS_P1;PMS_P2;Temp;Humidity;BMP_temperature;BMP_pressure;BME280_temperature;BME280_humidity;BME280_pressure;Samples;Min_cycle;Max_cycle;Signal;HPM_P1;HPM_P2
2021/11/01 00:00:36;;;;;;;3.50;3.20;;;;;;;10.06;95.49;94845.28;5098100;28;20470;-57
2021/11/01 00:03:01;;;;;;;6.65;3.63;;;;;;;10.16;94.94;94843.34;5090448;28;20024;-59
2021/11/01 00:05:27;;;;;;;3.70;3.40;;;;;;;10.23;94.68;94834.81;5090555;28;20475;-58
2021/11/01 00:07:53;;;;;;;3.67;3.28;;;;;;;10.25;95.14;94838.13;5089961;28;20027;-58
2021/11/01 00:10:20;;;;;;;5.18;3.40;;;;;;;10.29;94.98;94834.19;5090394;28;20024;-58
2021/11/01 00:12:45;;;;;;;3.50;2.75;;;;;;;10.38;93.79;94835.03;5090392;28;20051;-58
2021/11/01 00:15:11;;;;;;;3.70;2.80;;;;;;;10.43;94.11;94825.69;5090369;28;20475;-59
2021/11/01 00:17:38;;;;;;;4.80;3.15;;;;;;;10.50;94.23;94825.03;5090356;28;20028;-59
2021/11/01 00:20:06;;;;;;;2.80;2.30;;;;;;;10.52;94.49;94823.06;5090137;28;20027;-59
2021/11/01 00:22:33;;;;;;;2.67;2.45;;;;;;;10.57;94.08;94826.84;5090276;28;20024;-59
2021/11/01 00:24:59;;;;;;;2.53;2.35;;;;;;;10.61;94.44;94814.22;5090173;28;20031;-58
2021/11/01 00:27:24;;;;;;;3.25;2.13;;;;;;;10.65;93.90;94815.50;5090170;28;20028;-58
2021/11/01 00:29:50;;;;;;;2.75;2.13;;;;;;;10.69;93.61;94808.94;5090498;28;20596;-59
2021/11/01 00:32:16;;;;;;;2.83;2.08;;;;;;;10.72;94.04;94807.75;5090069;28;20028;-59
2021/11/01 00:34:42;;;;;;;2.20;2.00;;;;;;;10.67;95.54;94807.44;5090164;28;20020;-59
2021/11/01 00:37:11;;;;;;;2.40;2.20;;;;;;;10.66;95.50;94808.44;5089918;28;20024;-59
2021/11/01 00:39:36;;;;;;;2.45;2.33;;;;;;;10.71;94.92;94808.75;5089859;28;20127;-59
2021/11/01 00:42:03;;;;;;;2.00;1.90;;;;;;;10.78;95.14;94816.81;5089853;28;20165;-59
2021/11/01 00:44:29;;;;;;;2.22;2.03;;;;;;;10.72;96.17;94813.88;5090040;28;20028;-59
2021/11/01 00:46:57;;;;;;;2.67;2.38;;;;;;;10.69;97.54;94802.81;5089850;28;20020;-59
2021/11/01 00:49:23;;;;;;;2.35;2.17;;;;;;;10.65;98.16;94799.72;5089804;28;20028;-59
2021/11/01 00:51:49;;;;;;;3.33;2.50;;;;;;;10.65;99.06;94798.88;5089870;28;20463;-59
2021/11/01 00:54:14;;;;;;;2.70;2.20;;;;;;;10.63;99.42;94793.81;5089996;28;20101;-59
2021/11/01 00:56:40;;;;;;;2.53;2.30;;;;;;;10.63;99.81;94791.16;5089933;28;20415;-59
2021/11/01 00:59:05;;;;;;;2.47;2.33;;;;;;;10.65;99.10;94799.72;5089510;28;20027;-59
2021/11/01 01:01:34;;;;;;;2.30;2.10;;;;;;;10.67;98.68;94797.75;5097262;28;20027;-59
2021/11/01 01:04:01;;;;;;;2.75;2.30;;;;;;;10.69;98.73;94802.81;5089745;28;20031;-58
2021/11/01 01:06:27;;;;;;;2.53;2.33;;;;;;;10.70;99.56;94796.56;5089827;28;20421;-59
2021/11/01 01:08:54;;;;;;;3.97;2.30;;;;;;;10.72;100.00;94802.50;5089757;28;20102;-59
2021/11/01 01:11:19;;;;;;;2.50;2.30;;;;;;;10.70;100.00;94796.56;5089466;28;20028;-59
2021/11/01 01:13:45;;;;;;;3.88;2.50;;;;;;;10.70;100.00;94800.03;5090012;28;20024;-58
2021/11/01 01:18:38;;;;;;;2.40;2.20;;;;;;;10.71;100.00;94798.22;5089541;28;20038;-59
2021/11/01 01:23:52;;;;;;;3.10;2.40;;;;;;;10.72;100.00;94813.03;5093770;28;20089;-59
2021/11/01 01:26:18;;;;;;;2.60;2.40;;;;;;;10.72;100.00;94813.03;5093459;28;20475;-59
2021/11/01 01:28:44;;;;;;;2.60;2.10;;;;;;;10.72;100.00;94819.13;5093575;28;20027;-58
2021/11/01 01:31:10;;;;;;;2.53;2.00;;;;;;;10.71;100.00;94814.00;5093383;28;20403;-59
2021/11/01 01:33:37;;;;;;;2.42;2.22;;;;;;;10.69;100.00;94810.72;5093222;28;20016;-59
2021/11/01 01:36:04;;;;;;;3.78;2.20;;;;;;;10.65;100.00;94815.50;5093271;28;20046;-59
2021/11/01 01:38:29;;;;;;;2.15;1.95;;;;;;;10.65;100.00;94806.78;5093037;28;20048;-59
2021/11/01 01:40:55;;;;;;;2.33;2.13;;;;;;;10.67;100.00;94815.34;5093251;28;20053;-59
2021/11/01 01:43:21;;;;;;;2.10;1.98;;;;;;;10.71;100.00;94816.66;5093146;28;20029;-59
2021/11/01 01:45:47;;;;;;;2.20;2.00;;;;;;;10.72;100.00;94813.03;5093334;28;20027;-58
2021/11/01 01:48:13;;;;;;;3.40;2.08;;;;;;;10.67;100.00;94816.19;5093079;28;20020;-59
2021/11/01 01:50:40;;;;;;;3.53;1.88;;;;;;;10.60;100.00;94816.00;5093054;28;20484;-59
2021/11/01 01:53:06;;;;;;;7.10;2.42;;;;;;;10.58;100.00;94811.88;5092967;28;20042;-58
2021/11/01 01:55:33;;;;;;;2.63;2.00;;;;;;;10.55;100.00;94807.78;5092932;28;20024;-59
2021/11/01 01:57:59;;;;;;;1.98;1.80;;;;;;;10.58;100.00;94807.44;5096427;28;20427;-59
2021/11/01 02:01:24;;;;;;;2.92;2.20;;;;;;;10.64;100.00;94815.66;5093563;27;20032;-59
2021/11/01 02:03:19;;;;;;;2.78;2.58;;;;;;;10.66;100.00;94813.69;5088096;28;20523;-59
2021/11/01 02:06:09;;;;;;;3.95;2.70;;;;;;;10.62;100.00;94812.38;5093001;28;20031;-59
2021/11/01 02:09:00;;;;;;;2.60;2.03;;;;;;;10.66;100.00;94811.06;5092721;28;20024;-59
2021/11/01 02:11:34;;;;;;;3.05;2.45;;;;;;;10.67;100.00;94810.06;5073738;28;20039;-59
2021/11/01 02:14:02;;;;;;;2.75;2.20;;;;;;;10.72;100.00;94811.22;5092902;28;20445;-59
2021/11/01 02:16:34;;;;;;;2.10;2.00;;;;;;;10.74;100.00;94814.53;5092649;28;20024;-59
2021/11/01 02:19:02;;;;;;;2.10;2.00;;;;;;;10.78;100.00;94814.19;5092657;28;20451;-59
2021/11/01 02:21:36;;;;;;;2.30;1.80;;;;;;;10.79;100.00;94819.31;5092797;28;20449;-59
2021/11/01 02:24:17;;;;;;;3.38;2.28;;;;;;;10.81;100.00;94808.59;5092747;28;20018;-59
2021/11/01 02:26:43;;;;;;;2.42;2.20;;;;;;;10.83;100.00;94791.66;5092506;28;20577;-59
2021/11/01 02:29:10;;;;;;;3.75;2.25;;;;;;;10.86;100.00;94799.22;5092561;28;20111;-59
2021/11/01 02:31:37;;;;;;;3.65;2.15;;;;;;;10.86;100.00;94799.22;5091969;28;20035;-59
2021/11/01 02:34:03;;;;;;;2.70;2.38;;;;;;;10.86;100.00;94796.59;5092450;28;20051;-59
2021/11/01 02:36:29;;;;;;;3.25;2.17;;;;;;;10.85;100.00;94796.75;5092292;28;20035;-59
2021/11/01 02:38:56;;;;;;;2.53;2.00;;;;;;;10.84;100.00;94790.66;5092165;28;20052;-59
2021/11/01 02:41:27;;;;;;;2.72;2.35;;;;;;;10.87;100.00;94789.50;5092544;28;20038;-59
2021/11/01 02:43:52;;;;;;;5.05;2.30;;;;;;;10.87;100.00;94782.44;5092537;28;20032;-59
2021/11/01 02:46:18;;;;;;;3.30;2.00;;;;;;;10.86;100.00;94783.41;5092175;28;20024;-59
2021/11/01 02:48:45;;;;;;;2.33;2.13;;;;;;;10.89;100.00;94782.28;5092153;28;20411;-59
2021/11/01 02:51:11;;;;;;;2.35;2.15;;;;;;;10.89;100.00;94774.38;5092079;28;20032;-59
2021/11/01 02:53:36;;;;;;;2.38;2.13;;;;;;;10.91;100.00;94776.81;5092045;28;20031;-59
2021/11/01 02:56:03;;;;;;;2.30;1.95;;;;;;;10.92;100.00;94770.56;5091993;28;20036;-58
2021/11/01 02:58:28;;;;;;;2.55;2.33;;;;;;;10.89;100.00;94764.66;5091721;28;20399;-59
2021/11/01 03:00:53;;;;;;;2.10;2.00;;;;;;;10.87;100.00;94757.91;5092202;28;20028;-59
2021/11/01 03:03:19;;;;;;;2.88;2.00;;;;;;;10.84;100.00;94759.06;5091838;28;20027;-59
2021/11/01 03:05:45;;;;;;;4.20;2.50;;;;;;;10.86;100.00;94753.66;5091614;28;20489;-58
2021/11/01 03:08:10;;;;;;;2.10;2.00;;;;;;;10.85;100.00;94758.06;5091647;28;20035;-58
2021/11/01 03:10:38;;;;;;;2.90;2.00;;;;;;;10.83;100.00;94752.16;5091724;28;20028;-59
2021/11/01 03:13:03;;;;;;;2.78;2.05;;;;;;;10.83;100.00;94757.41;5091510;28;20077;-59
2021/11/01 03:15:29;;;;;;;4.85;1.52;;;;;;;10.83;100.00;94752.16;5091525;28;20081;-59
2021/11/01 03:18:06;;;;;;;2.10;1.90;;;;;;;10.82;100.00;94752.31;5091855;28;20020;-58
2021/11/01 03:20:38;;;;;;;1.80;1.52;;;;;;;10.80;100.00;94762.19;5091457;28;20031;-59
2021/11/01 03:23:13;;;;;;;4.13;2.22;;;;;;;10.74;100.00;94758.44;5091584;28;20028;-59
2021/11/01 03:25:44;;;;;;;4.45;2.35;;;;;;;10.72;100.00;94758.59;5091237;28;20096;-59
2021/11/01 03:28:11;;;;;;;3.05;2.40;;;;;;;10.74;100.00;94763.69;5091458;28;20305;-59
2021/11/01 03:30:38;;;;;;;2.80;2.22;;;;;;;10.75;100.00;94757.44;5091462;28;20020;-59
2021/11/01 03:33:04;;;;;;;5.22;2.40;;;;;;;10.75;100.00;94762.72;5091234;28;20114;-59
2021/11/01 03:35:31;;;;;;;3.53;2.47;;;;;;;10.72;100.00;94761.22;5091132;28;20107;-59
2021/11/01 03:38:00;;;;;;;3.95;2.40;;;;;;;10.70;100.00;94751.81;5091203;28;20052;-59
2021/11/01 03:40:29;;;;;;;4.00;2.50;;;;;;;10.71;100.00;94753.47;5091301;28;20028;-58
2021/11/01 03:42:55;;;;;;;2.40;2.17;;;;;;;10.73;100.00;94759.41;5090714;28;20056;-59
2021/11/01 03:45:24;;;;;;;4.25;2.58;;;;;;;10.80;100.00;94752.50;5091104;28;20027;-59
2021/11/01 03:47:54;;;;;;;2.78;2.40;;;;;;;10.84;100.00;94758.25;5091067;28;20358;-59
2021/11/01 03:50:47;;;;;;;5.20;2.50;;;;;;;10.86;100.00;94762.34;5090777;28;20444;-59
2021/11/01 03:53:06;;;;;;;2.30;2.10;;;;;;;10.87;100.00;94757.91;5090607;28;20068;-59
2021/11/01 03:55:32;;;;;;;2.50;2.28;;;;;;;10.86;100.00;94757.09;5090870;28;20034;-59
2021/11/01 03:57:59;;;;;;;3.17;2.00;;;;;;;10.88;100.00;94760.38;5123810;27;20388;-58
2021/11/01 04:00:27;;;;;;;2.85;2.40;;;;;;;10.86;100.00;94754.44;5090650;28;20028;-59
2021/11/01 04:02:55;;;;;;;3.42;2.42;;;;;;;10.84;100.00;94755.63;5090736;28;20515;-58
2021/11/01 04:05:20;;;;;;;2.78;2.58;;;;;;;10.79;100.00;94750.00;5090837;28;20039;-59
2021/11/01 04:07:46;;;;;;;3.05;2.72;;;;;;;10.80;100.00;94743.75;5090518;28;20024;-59
2021/11/01 04:10:13;;;;;;;2.60;2.40;;;;;;;10.77;100.00;94752.81;5090627;28;20098;-59
2021/11/01 04:12:41;;;;;;;3.03;2.58;;;;;;;10.73;100.00;94747.06;5090783;28;20099;-59
2021/11/01 04:15:10;;;;;;;4.85;2.47;;;;;;;10.72;100.00;94758.59;5090504;28;20081;-59
2021/11/01 04:17:40;;;;;;;7.88;2.53;;;;;;;10.73;100.00;94748.88;5090360;28;20502;-59
2021/11/01 04:22:50;;;;;;;8.98;2.60;;;;;;;10.78;100.00;94761.53;5090593;28;20028;-59
2021/11/01 04:25:16;;;;;;;5.35;2.53;;;;;;;10.78;100.00;94758.91;5090429;28;20028;-59
2021/11/01 04:27:42;;;;;;;3.03;2.63;;;;;;;10.80;100.00;94770.09;5090372;28;20028;-59
2021/11/01 04:30:08;;;;;;;4.18;2.80;;;;;;;10.79;100.00;94763.16;5090214;28;20028;-59
2021/11/01 04:32:41;;;;;;;6.95;2.33;;;;;;;10.81;100.00;94763.81;5090396;28;20028;-59
2021/11/01 04:35:34;;;;;;;3.15;2.90;;;;;;;10.82;100.00;94768.09;5090296;28;20032;-59
2021/11/01 04:38:05;;;;;;;2.92;2.75;;;;;;;10.84;100.00;94772.22;5090233;28;20496;-59
2021/11/01 04:41:23;;;;;;;2.60;2.40;;;;;;;10.89;100.00;94771.75;5090196;28;20407;-59
2021/11/01 04:54:02;;;;;;;4.80;4.43;;;;;;;10.93;100.00;94777.47;5090579;28;20125;-59
2021/11/01 04:56:28;;;;;;;5.03;3.67;;;;;;;10.87;100.00;94769.25;5094168;28;20035;-59
2021/11/01 04:58:56;;;;;;;5.57;4.18;;;;;;;10.81;100.00;94777.81;5094222;28;20028;-58
2021/11/01 05:01:26;;;;;;;2.78;2.58;;;;;;;10.82;100.00;94782.09;5094041;28;20157;-58
2021/11/01 05:03:55;;;;;;;2.50;2.10;;;;;;;10.81;100.00;94782.25;5094064;28;20028;-58
2021/11/01 05:06:25;;;;;;;2.33;1.55;;;;;;;10.79;100.00;94782.44;5094040;28;20492;-58
2021/11/01 05:09:01;;;;;;;4.28;1.48;;;;;;;10.75;100.00;94781.13;5093950;28;20475;-58
2021/11/01 05:11:33;;;;;;;2.67;1.40;;;;;;;10.75;100.00;94786.41;5093889;28;20545;-58
2021/11/01 05:14:00;;;;;;;1.77;1.20;;;;;;;10.81;100.00;94791.00;5093933;28;20024;-58
2021/11/01 05:16:55;;;;;;;4.85;1.38;;;;;;;10.78;100.00;94793.13;5093949;28;20032;-58
2021/11/01 05:19:27;;;;;;;3.33;1.58;;;;;;;10.68;100.00;94795.91;5093710;28;20452;-58
2021/11/01 05:24:46;;;;;;;2.78;1.63;;;;;;;10.58;100.00;94796.91;5094268;28;20453;-58
2021/11/01 05:29:50;;;;;;;2.85;1.00;;;;;;;10.53;100.00;94803.66;5124880;27;20395;-58
2021/11/01 05:32:19;;;;;;;1.98;1.50;;;;;;;10.47;100.00;94797.22;5093572;28;20031;-58
2021/11/01 05:34:45;;;;;;;7.35;1.55;;;;;;;10.41;100.00;94811.03;5093414;28;20024;-58
2021/11/01 05:37:10;;;;;;;1.42;1.33;;;;;;;10.39;100.00;94805.94;5093709;28;20498;-58
2021/11/01 05:39:38;;;;;;;1.15;1.15;;;;;;;10.44;100.00;94808.91;5093508;28;20054;-58
2021/11/01 05:42:07;;;;;;;1.70;1.08;;;;;;;10.46;100.00;94814.84;5093429;28;20032;-58
2021/11/01 05:44:32;;;;;;;1.00;0.82;;;;;;;10.46;100.00;94819.25;5093424;28;20035;-58
2021/11/01 05:46:58;;;;;;;1.10;1.00;;;;;;;10.35;100.00;94835.34;5093345;28;20028;-58
2021/11/01 05:49:24;;;;;;;0.73;0.73;;;;;;;10.43;100.00;94844.13;5093161;28;20089;-58
2021/11/01 05:51:51;;;;;;;0.80;0.80;;;;;;;10.39;100.00;94841.94;5093336;28;20043;-58
2021/11/01 05:54:24;;;;;;;1.70;0.93;;;;;;;10.36;100.00;94844.88;5093199;28;20035;-58
2021/11/01 06:05:00;;;;;;;1.83;0.98;;;;;;;10.21;100.00;94877.06;5092922;28;20030;-58
2021/11/01 06:15:14;;;;;;;0.95;0.70;;;;;;;10.34;100.00;94888.97;5093035;28;20046;-58
2021/11/01 06:17:40;;;;;;;0.60;0.60;;;;;;;10.28;100.00;94888.63;5092834;28;20123;-58
2021/11/01 06:20:06;;;;;;;1.33;0.85;;;;;;;10.30;100.00;94896.34;5092719;28;20039;-58
2021/11/01 06:22:32;;;;;;;0.85;0.73;;;;;;;10.27;100.00;94899.28;5092363;28;20436;-58
2021/11/01 06:25:00;;;;;;;0.80;0.80;;;;;;;10.26;100.00;94895.00;5092660;28;20107;-58
2021/11/01 06:27:27;;;;;;;1.75;0.70;;;;;;;10.26;100.00;94902.91;5092487;28;20129;-58
2021/11/01 06:40:30;;;;;;;0.82;0.75;;;;;;;10.18;100.00;94922.94;5092241;28;20046;-58
2021/11/01 06:55:54;;;;;;;1.85;1.30;;;;;;;10.13;100.00;94942.81;5091926;28;20047;-58
2021/11/01 06:58:34;;;;;;;3.78;1.75;;;;;;;10.12;100.00;94946.41;5091873;28;20024;-59
2021/11/01 07:15:06;;;;;;;3.40;1.65;;;;;;;10.04;100.00;94969.03;5091666;28;20517;-58
2021/11/01 07:17:39;;;;;;;3.75;2.13;;;;;;;10.06;100.00;94976.78;5090872;28;20399;-58
2021/11/01 07:20:18;;;;;;;2.58;2.10;;;;;;;10.07;100.00;94973.19;5091037;28;20043;-58
2021/11/01 08:22:58;;;;;;;3.88;3.05;;;;;;;9.93;100.00;95007.94;5090190;28;20506;-58
2021/11/01 08:36:26;;;;;;;2.47;2.30;;;;;;;9.86;100.00;95013.00;5090108;28;20043;-58
2021/11/01 09:22:20;;;;;;;10.10;9.18;;;;;;;10.13;100.00;95000.66;5090098;28;20032;-59
2021/11/01 09:24:55;;;;;;;10.18;9.38;;;;;;;10.22;100.00;95002.34;5089822;28;20099;-58
2021/11/01 09:27:23;;;;;;;8.73;7.93;;;;;;;10.23;100.00;94997.94;5089892;28;20391;-58
2021/11/01 09:43:06;;;;;;;25.15;19.42;;;;;;;10.24;100.00;94987.22;5093281;28;20093;-58
2021/11/01 09:45:36;;;;;;;6.70;5.93;;;;;;;10.26;100.00;94987.09;5093349;28;20085;-58
2021/11/01 09:48:03;;;;;;;6.15;5.65;;;;;;;10.31;100.00;94980.38;5092076;28;20043;-59
2021/11/01 09:50:30;;;;;;;12.88;11.30;;;;;;;10.34;100.00;94981.84;5093543;28;20047;-58
2021/11/01 09:52:59;;;;;;;5.18;4.78;;;;;;;10.27;100.00;94972.94;5093568;28;20091;-58
2021/11/01 10:00:52;;;;;;;2.20;1.30;;;;;;;10.19;100.00;94984.25;5081456;28;20044;-58
2021/11/01 10:03:17;;;;;;;3.70;3.22;;;;;;;10.18;100.00;94977.34;5093100;28;20526;-58
2021/11/01 10:05:59;;;;;;;7.03;5.85;;;;;;;10.13;100.00;94963.84;5093135;28;20020;-58
2021/11/01 10:08:26;;;;;;;6.85;3.83;;;;;;;10.14;100.00;94954.97;5092762;28;20032;-58
2021/11/01 10:10:52;;;;;;;2.80;2.55;;;;;;;10.18;100.00;94941.34;5092763;28;20505;-58
2021/11/01 10:13:17;;;;;;;1.20;1.20;;;;;;;10.23;100.00;94930.34;5093118;28;20106;-58
2021/11/01 10:18:28;;;;;;;2.72;0.98;;;;;;;10.14;100.00;94915.50;5093314;28;20051;-58
2021/11/01 10:20:59;;;;;;;1.08;1.08;;;;;;;10.10;100.00;94901.03;5092937;28;20028;-58
2021/11/01 10:23:33;;;;;;;4.97;1.17;;;;;;;10.12;100.00;94888.56;5092690;28;20024;-58
2021/11/01 10:26:12;;;;;;;1.55;1.48;;;;;;;10.16;100.00;94874.09;5092876;28;20395;-59
2021/11/01 10:28:38;;;;;;;4.65;4.25;;;;;;;10.24;100.00;94868.03;5092445;28;20024;-59
2021/11/01 10:31:19;;;;;;;10.55;9.65;;;;;;;10.22;100.00;94862.94;5092545;28;20024;-58
2021/11/01 10:33:46;;;;;;;6.43;5.90;;;;;;;10.19;100.00;94852.72;5092217;28;20468;-58
2021/11/01 10:36:24;;;;;;;2.40;2.30;;;;;;;10.18;100.00;94859.81;5092459;28;20028;-58
2021/11/01 10:39:16;;;;;;;8.80;7.90;;;;;;;10.26;100.00;94863.44;5092015;28;20136;-58
2021/11/01 10:41:44;;;;;;;3.47;3.17;;;;;;;10.50;100.00;94857.47;5092303;28;20020;-58
2021/11/01 10:44:36;;;;;;;1.88;1.77;;;;;;;10.38;100.00;94863.97;5092313;28;20422;-58
2021/11/01 11:14:48;;;;;;;3.33;2.83;;;;;;;10.45;100.00;94878.16;5091818;28;20031;-58
2021/11/01 11:17:28;;;;;;;4.25;3.95;;;;;;;10.58;100.00;94883.78;5091844;28;20053;-58
2021/11/01 11:20:22;;;;;;;3.33;3.13;;;;;;;10.78;100.00;94880.84;5091462;28;20039;-59
2021/11/01 11:31:23;;;;;;;3.20;3.00;;;;;;;11.38;98.85;94875.41;5091162;28;20255;-58
2021/11/01 11:39:35;;;;;;;3.90;3.60;;;;;;;11.41;97.39;94875.06;5090737;28;20051;-58
2021/11/01 11:47:53;;;;;;;2.40;2.20;;;;;;;11.09;98.18;94874.09;5091048;28;20039;-59
2021/11/01 11:50:22;;;;;;;2.70;2.50;;;;;;;10.99;98.67;94874.28;5091031;28;20056;-58
2021/11/01 11:52:48;;;;;;;2.17;2.08;;;;;;;10.91;98.79;94879.53;5089443;28;20405;-59
2021/11/01 11:55:18;;;;;;;2.45;2.35;;;;;;;10.83;99.28;94873.28;5090817;28;20028;-58
2021/11/01 11:57:53;;;;;;;2.70;2.60;;;;;;;10.80;99.15;94873.59;5090759;28;20388;-58
2021/11/01 12:00:19;;;;;;;2.92;2.72;;;;;;;10.85;99.46;94860.75;5090954;28;20035;-58
2021/11/01 12:02:52;;;;;;;2.55;2.35;;;;;;;10.89;99.66;94856.81;5090633;28;20020;-58
2021/11/01 12:05:28;;;;;;;1.90;1.75;;;;;;;10.95;98.19;94849.25;5090102;28;20032;-58
2021/11/01 12:08:10;;;;;;;1.80;1.70;;;;;;;10.81;97.56;94843.66;5090455;28;20020;-58
2021/11/01 12:18:53;;;;;;;1.98;1.88;;;;;;;10.98;99.54;94836.56;5090336;28;20038;-58
2021/11/01 12:21:19;;;;;;;2.53;2.42;;;;;;;11.10;98.43;94826.50;5090639;28;20050;-58
2021/11/01 12:23:45;;;;;;;9.68;8.95;;;;;;;11.40;96.90;94825.97;5090225;28;20070;-58
2021/11/01 12:26:18;;;;;;;12.50;11.57;;;;;;;11.56;95.10;94823.31;5090615;28;20411;-58
2021/11/01 12:28:53;;;;;;;5.10;4.80;;;;;;;11.69;93.85;94820.13;5090334;28;20115;-59
2021/11/01 12:31:19;;;;;;;2.83;2.70;;;;;;;11.65;93.30;94820.63;5090153;28;20092;-58
2021/11/01 12:36:46;;;;;;;;;;;;;;;11.60;91.87;94816.69;5090811;28;20082;-58
2021/11/01 12:39:23;;;;;;;1.30;1.30;;;;;;;11.53;90.96;94810.47;5090121;28;19920;-58
2021/11/01 12:42:14;;;;;;;1.20;1.15;;;;;;;11.39;90.76;94808.53;5089954;28;20039;-58
2021/11/01 12:58:30;;;;;;;2.33;1.33;;;;;;;11.71;91.10;94785.66;5089982;28;20035;-58
2021/11/01 13:01:05;;;;;;;1.65;1.40;;;;;;;11.70;89.62;94789.31;5089987;28;20024;-58
2021/11/01 13:03:30;;;;;;;3.53;1.70;;;;;;;11.78;90.28;94785.81;5090126;28;20024;-58
2021/11/01 13:06:07;;;;;;;1.50;1.50;;;;;;;12.05;90.06;94787.19;5090103;28;20097;-58
2021/11/01 13:08:49;;;;;;;1.30;1.30;;;;;;;12.41;87.30;94780.53;5089752;28;20024;-58
2021/11/01 13:19:26;;;;;;;1.65;1.42;;;;;;;12.70;86.02;94766.63;5093834;28;20950;-58
2021/11/01 13:21:58;;;;;;;1.48;1.48;;;;;;;12.78;84.83;94775.47;5093965;28;20111;-58
2021/11/01 13:24:48;;;;;;;1.50;1.40;;;;;;;12.52;84.72;94777.50;5093762;28;20021;-58
2021/11/01 13:35:45;;;;;;;1.40;1.30;;;;;;;11.89;87.19;94762.50;5093579;28;20085;-58
2021/11/01 13:38:12;;;;;;;2.55;1.30;;;;;;;11.81;87.36;94769.63;5093264;28;20074;-58
2021/11/01 13:40:42;;;;;;;1.38;1.30;;;;;;;11.82;88.30;94756.28;5093520;28;20024;-58
2021/11/01 13:43:08;;;;;;;1.40;1.40;;;;;;;12.05;88.75;94755.53;5093670;28;20157;-58
2021/11/01 13:45:33;;;;;;;2.53;1.10;;;;;;;12.44;87.04;94759.91;5093530;28;20481;-58
2021/11/01 13:48:00;;;;;;;1.13;1.08;;;;;;;12.30;85.62;94753.56;5093337;28;20028;-58
2021/11/01 13:50:38;;;;;;;1.15;1.10;;;;;;;12.18;85.65;94762.88;5093294;28;20027;-58
2021/11/01 13:53:14;;;;;;;1.33;1.02;;;;;;;12.14;86.94;94766.88;5093367;28;20028;-58
2021/11/01 15:24:52;;;;;;;1.40;1.40;;;;;;;9.30;95.57;94837.22;5091352;28;20060;-58
2021/11/01 16:18:32;;;;;;;6.22;5.60;;;;;;;8.87;100.00;94908.78;5091167;28;20166;-58
2021/11/01 16:20:59;;;;;;;5.30;4.75;;;;;;;8.85;100.00;94910.75;5090838;28;20016;-58
2021/11/01 16:25:56;;;;;;;3.42;2.58;;;;;;;8.90;100.00;94915.56;5090338;28;20114;-58
2021/11/01 16:28:29;;;;;;;1.58;1.58;;;;;;;8.93;100.00;94911.78;5090336;28;20538;-58
2021/11/01 16:31:42;;;;;;;4.75;2.58;;;;;;;8.87;100.00;94914.03;5090273;28;20028;-58
2021/11/01 16:33:49;;;;;;;4.60;2.75;;;;;;;8.83;100.00;94912.69;5079025;28;20079;-58
2021/11/01 16:36:49;;;;;;;2.25;2.10;;;;;;;8.79;100.00;94915.75;5090353;28;20024;-58
2021/11/01 16:39:12;;;;;;;4.68;4.28;;;;;;;8.73;100.00;94911.94;5089605;28;20048;-58
2021/11/01 16:41:41;;;;;;;8.85;6.60;;;;;;;8.71;100.00;94916.50;5090190;28;20020;-58
2021/11/01 16:44:18;;;;;;;6.82;3.42;;;;;;;8.71;100.00;94906.00;5090363;28;20056;-58
2021/11/01 16:46:45;;;;;;;10.20;9.40;;;;;;;8.67;100.00;94908.13;5090185;28;20081;-58
2021/11/01 16:49:11;;;;;;;5.15;3.30;;;;;;;8.68;100.00;94907.16;5090079;28;20051;-58
2021/11/01 16:51:38;;;;;;;3.90;3.50;;;;;;;8.71;100.00;94898.13;5089704;28;20548;-58
2021/11/01 16:54:05;;;;;;;7.82;7.22;;;;;;;8.64;100.00;94904.97;5090363;28;20039;-58
2021/11/01 16:56:43;;;;;;;8.57;7.70;;;;;;;8.62;100.00;94901.66;5090435;28;20024;-58
2021/11/01 16:59:16;;;;;;;11.52;10.63;;;;;;;8.62;100.00;94904.28;5090008;28;20039;-58
2021/11/01 17:01:50;;;;;;;1.98;1.88;;;;;;;8.57;100.00;94895.06;5089833;28;20437;-58
2021/11/01 17:04:18;;;;;;;4.68;2.95;;;;;;;8.53;100.00;94890.28;5090005;28;20078;-58
2021/11/01 17:06:55;;;;;;;9.82;8.98;;;;;;;8.56;100.00;94882.09;5089821;28;20463;-58
2021/11/01 17:22:58;;;;;;;3.45;3.20;;;;;;;8.24;100.00;94910.44;5089906;28;20514;-58
2021/11/01 17:25:45;;;;;;;5.10;4.70;;;;;;;8.18;100.00;94908.41;5089808;28;20114;-58
2021/11/01 18:52:13;;;;;;;5.88;5.38;;;;;;;6.58;100.00;94972.63;5092667;28;20031;-58
2021/11/01 18:54:42;;;;;;;8.80;7.95;;;;;;;6.56;100.00;94977.16;5092533;28;20020;-58
2021/11/01 18:57:10;;;;;;;11.40;10.40;;;;;;;6.53;100.00;94969.59;5092163;28;20111;-58
2021/11/01 18:59:38;;;;;;;14.63;13.13;;;;;;;6.47;100.00;94964.91;5091188;28;20028;-58
2021/11/01 19:05:08;;;;;;;15.73;11.85;;;;;;;6.51;100.00;94971.50;5091887;28;20110;-58
2021/11/01 19:07:44;;;;;;;47.05;36.95;;;;;;;6.53;100.00;94977.44;5091671;28;20032;-58
2021/11/01 20:05:29;;;;;;;16.55;13.60;;;;;;;6.16;100.00;94955.31;5090684;28;19919;-58
2021/11/01 20:16:33;;;;;;;16.73;15.07;;;;;;;6.09;100.00;94955.03;5070690;28;20036;-58
2021/11/01 21:26:04;;;;;;;26.52;20.80;;;;;;;5.48;100.00;94942.75;5089949;28;20577;-59
2021/11/01 21:28:29;;;;;;;25.83;21.58;;;;;;;5.44;100.00;94940.41;5089841;28;20028;-58
2021/11/01 21:30:55;;;;;;;30.17;21.77;;;;;;;5.47;100.00;94948.94;5089849;28;20028;-58
2021/11/01 21:33:24;;;;;;;29.40;22.35;;;;;;;5.43;100.00;94951.81;5088968;28;20035;-58
2021/11/01 21:35:54;;;;;;;27.20;21.35;;;;;;;5.43;100.00;94950.97;5088619;28;20083;-59
2021/11/01 21:38:20;;;;;;;20.63;17.48;;;;;;;5.45;100.00;94947.28;5091996;28;20044;-59
2021/11/01 21:40:47;;;;;;;25.30;17.52;;;;;;;5.52;100.00;94944.97;5093469;28;20028;-59
2021/11/01 21:43:13;;;;;;;22.65;18.58;;;;;;;5.59;100.00;94943.50;5093538;28;20028;-59
2021/11/01 21:45:39;;;;;;;17.92;16.02;;;;;;;5.63;100.00;94945.88;5093206;28;20118;-58
2021/11/01 21:48:05;;;;;;;18.80;13.32;;;;;;;5.61;100.00;94950.41;5093509;28;20122;-59
2021/11/01 21:50:31;;;;;;;11.15;9.40;;;;;;;5.58;100.00;94948.84;5093364;28;20713;-59
2021/11/01 21:53:00;;;;;;;15.10;12.75;;;;;;;5.58;100.00;94943.63;5093584;28;20020;-59
2021/11/01 21:55:26;;;;;;;15.05;12.73;;;;;;;5.60;100.00;94941.72;5093573;28;20047;-58
2021/11/01 22:00:45;;;;;;;;;;;;;;;5.63;100.00;94940.63;5081949;28;20056;-59
2021/11/01 22:22:34;;;;;;;12.02;10.32;;;;;;;5.65;100.00;94923.91;5093012;28;20069;-59
2021/11/01 22:25:19;;;;;;;7.90;7.20;;;;;;;5.67;100.00;94913.31;5093040;28;20048;-59
2021/11/01 22:41:12;;;;;;;13.20;11.80;;;;;;;5.54;100.00;94888.25;5092116;28;20097;-59
2021/11/01 22:44:05;;;;;;;13.65;10.70;;;;;;;5.50;100.00;94886.03;5092102;28;20460;-59
2021/11/01 22:57:20;;;;;;;13.45;12.13;;;;;;;5.22;100.00;94870.09;5092364;28;20450;-59
2021/11/01 22:59:45;;;;;;;12.75;11.40;;;;;;;5.20;100.00;94875.44;5091863;28;20054;-58
2021/11/01 23:02:11;;;;;;;10.98;9.57;;;;;;;5.21;100.00;94873.66;5091902;28;20483;-59
2021/11/01 23:04:53;;;;;;;18.95;16.17;;;;;;;5.21;100.00;94884.09;5091849;28;20016;-59
2021/11/01 23:32:08;;;;;;;20.33;16.58;;;;;;;5.20;100.00;94888.47;5091630;28;20070;-59
2021/11/01 23:34:34;;;;;;;19.25;15.15;;;;;;;5.14;100.00;94878.56;5091371;28;20107;-59
2021/11/01 23:36:59;;;;;;;23.00;13.25;;;;;;;5.16;100.00;94887.91;5091384;28;20270;-58
2021/11/01 23:39:25;;;;;;;16.48;13.93;;;;;;;5.19;100.00;94878.16;5091105;28;20479;-59
2021/11/01 23:41:51;;;;;;;41.38;25.00;;;;;;;5.23;100.00;94879.56;5089965;28;20077;-59
2021/11/01 23:44:17;;;;;;;11.02;8.57;;;;;;;5.23;100.00;94867.34;5091160;28;20114;-58
2021/11/01 23:46:43;;;;;;;9.07;8.10;;;;;;;5.27;100.00;94867.91;5091355;28;20449;-59
2021/11/01 23:49:09;;;;;;;6.38;5.78;;;;;;;5.33;100.00;94872.59;5090981;28;20028;-59
2021/11/01 23:51:36;;;;;;;5.82;5.20;;;;;;;5.30;100.00;94865.03;5091301;28;20027;-59
2021/11/01 23:56:33;;;;;;;7.53;4.57;;;;;;;5.36;100.00;94843.63;5091281;28;20036;-58
2021/11/01 23:58:58;;;;;;;6.15;5.57;;;;;;;5.38;100.00;94846.94;5090618;28;20037;-59
